createdAt,value
2022-09-15T00:01:12.591Z,17.53
2022-09-15T00:03:49.004Z,17.53
2022-09-15T00:06:17.539Z,17.53
2022-09-15T00:08:44.921Z,17.52
2022-09-15T00:11:24.445Z,17.51
2022-09-15T00:13:53.143Z,17.51
2022-09-15T00:16:23.379Z,17.51
2022-09-15T00:18:50.968Z,17.50
2022-09-15T00:21:23.680Z,17.49
2022-09-15T00:23:52.073Z,17.48
2022-09-15T00:26:24.023Z,17.46
2022-09-15T00:28:52.211Z,17.45
2022-09-15T00:31:23.411Z,17.45
2022-09-15T00:33:55.038Z,17.45
2022-09-15T00:36:24.547Z,17.45
2022-09-15T00:38:52.666Z,17.46
2022-09-15T00:41:22.744Z,17.45
2022-09-15T00:44:05.891Z,17.46
2022-09-15T00:46:40.995Z,17.43
2022-09-15T00:49:29.521Z,17.41
2022-09-15T00:52:17.502Z,17.39
2022-09-15T00:55:28.398Z,17.39
2022-09-15T00:58:08.754Z,17.38
2022-09-15T01:00:36.754Z,17.38
2022-09-15T01:03:04.648Z,17.36
2022-09-15T01:05:41.122Z,17.35
2022-09-15T01:08:17.478Z,17.34
2022-09-15T01:10:46.726Z,17.34
2022-09-15T01:13:15.306Z,17.31
2022-09-15T01:16:09.919Z,17.31
2022-09-15T01:19:17.596Z,17.33
2022-09-15T01:22:04.618Z,17.31
2022-09-15T01:24:52.925Z,17.31
2022-09-15T01:28:16.080Z,17.31
2022-09-15T01:31:01.213Z,17.31
2022-09-15T01:33:37.757Z,17.31
2022-09-15T01:36:24.201Z,17.30
2022-09-15T01:39:07.575Z,17.31
2022-09-15T01:42:03.375Z,17.29
2022-09-15T01:44:49.469Z,17.31
2022-09-15T01:47:20.977Z,17.30
2022-09-15T01:49:59.274Z,17.31
2022-09-15T01:52:28.993Z,17.29
2022-09-15T01:55:04.622Z,17.29
2022-09-15T01:57:33.282Z,17.29
2022-09-15T02:00:01.033Z,17.29
2022-09-15T02:02:40.827Z,17.30
2022-09-15T02:05:50.127Z,17.28
2022-09-15T02:08:40.582Z,17.27
2022-09-15T02:11:22.777Z,17.27
2022-09-15T02:13:59.758Z,17.27
2022-09-15T02:16:35.164Z,17.27
2022-09-15T02:19:13.636Z,17.27
2022-09-15T02:21:57.170Z,17.27
2022-09-15T02:24:56.421Z,17.25
2022-09-15T02:27:29.805Z,17.23
2022-09-15T02:30:05.883Z,17.22
2022-09-15T02:32:36.863Z,17.20
2022-09-15T02:35:09.893Z,17.18
2022-09-15T02:37:38.885Z,17.15
2022-09-15T02:40:07.731Z,17.14
2022-09-15T02:42:35.474Z,17.13
2022-09-15T02:45:04.515Z,17.13
2022-09-15T02:47:32.433Z,17.11
2022-09-15T02:50:00.112Z,17.12
2022-09-15T02:52:30.554Z,17.11
2022-09-15T02:54:57.478Z,17.12
2022-09-15T02:57:24.534Z,17.11
2022-09-15T03:00:10.655Z,17.11
2022-09-15T03:02:38.370Z,17.11
2022-09-15T03:05:08.103Z,17.11
2022-09-15T03:07:37.154Z,17.09
2022-09-15T03:10:08.031Z,17.09
2022-09-15T03:12:51.465Z,17.09
2022-09-15T03:15:24.757Z,17.09
2022-09-15T03:17:53.251Z,17.09
2022-09-15T03:20:26.027Z,17.07
2022-09-15T03:22:53.357Z,17.08
2022-09-15T03:25:21.122Z,17.07
2022-09-15T03:27:48.460Z,17.07
2022-09-15T03:30:15.803Z,17.06
2022-09-15T03:32:43.665Z,17.06
2022-09-15T03:35:10.685Z,17.06
2022-09-15T03:37:38.333Z,17.05
2022-09-15T03:40:06.670Z,17.05
2022-09-15T03:42:33.900Z,17.04
2022-09-15T03:45:01.445Z,17.03
2022-09-15T03:47:28.941Z,17.04
2022-09-15T03:49:56.198Z,17.03
2022-09-15T03:52:23.479Z,17.00
2022-09-15T03:54:50.551Z,16.99
2022-09-15T03:57:17.661Z,16.97
2022-09-15T03:59:44.829Z,16.95
2022-09-15T04:02:11.941Z,16.95
2022-09-15T04:04:39.276Z,16.94
2022-09-15T04:07:06.407Z,16.93
2022-09-15T04:09:33.710Z,16.92
2022-09-15T04:12:00.754Z,16.90
2022-09-15T04:14:28.015Z,16.89
2022-09-15T04:16:55.264Z,16.88
2022-09-15T04:19:22.369Z,16.87
2022-09-15T04:21:49.598Z,16.86
2022-09-15T04:24:17.185Z,16.84
2022-09-15T04:26:45.155Z,16.82
2022-09-15T04:29:16.489Z,16.82
2022-09-15T04:31:43.773Z,16.81
2022-09-15T04:34:11.398Z,16.79
2022-09-15T04:36:38.732Z,16.79
2022-09-15T04:39:06.640Z,16.80
2022-09-15T04:41:34.829Z,16.80
2022-09-15T04:44:02.972Z,16.79
2022-09-15T04:46:31.133Z,16.80
2022-09-15T04:48:58.403Z,16.81
2022-09-15T04:51:27.134Z,16.82
2022-09-15T04:53:54.530Z,16.81
2022-09-15T04:56:25.508Z,16.84
2022-09-15T04:59:03.502Z,16.86
2022-09-15T05:01:35.301Z,16.86
2022-09-15T05:04:04.606Z,16.86
2022-09-15T05:06:33.559Z,16.88
2022-09-15T05:09:05.430Z,16.89
2022-09-15T05:11:36.627Z,16.90
2022-09-15T05:14:04.089Z,16.92
2022-09-15T05:16:31.919Z,16.92
2022-09-15T05:19:03.077Z,16.94
2022-09-15T05:21:31.509Z,16.95
2022-09-15T05:23:58.544Z,16.96
2022-09-15T05:26:28.517Z,16.96
2022-09-15T05:28:57.555Z,16.98
2022-09-15T05:31:30.459Z,17.00
2022-09-15T05:34:00.533Z,17.02
2022-09-15T05:36:27.674Z,17.05
2022-09-15T05:38:58.033Z,17.06
2022-09-15T05:41:28.306Z,17.08
2022-09-15T05:43:57.558Z,17.10
2022-09-15T05:46:26.314Z,17.11
2022-09-15T05:48:56.565Z,17.13
2022-09-15T05:51:24.691Z,17.15
2022-09-15T05:53:52.157Z,17.16
2022-09-15T05:56:20.163Z,17.18
2022-09-15T05:58:49.281Z,17.21
2022-09-15T06:01:23.876Z,17.23
2022-09-15T06:03:51.932Z,17.25
2022-09-15T06:06:21.888Z,17.27
2022-09-15T06:08:58.141Z,17.30
2022-09-15T06:11:30.331Z,17.32
2022-09-15T06:14:00.733Z,17.36
2022-09-15T06:16:33.948Z,17.38
2022-09-15T06:19:02.452Z,17.41
2022-09-15T06:21:32.001Z,17.45
2022-09-15T06:24:04.400Z,17.49
2022-09-15T06:26:31.707Z,17.53
2022-09-15T06:29:02.773Z,17.57
2022-09-15T06:31:33.513Z,17.61
2022-09-15T06:34:03.945Z,17.64
2022-09-15T06:36:32.360Z,17.69
2022-09-15T06:38:59.996Z,17.72
2022-09-15T06:41:35.337Z,17.75
2022-09-15T06:44:20.085Z,17.78
2022-09-15T06:46:48.216Z,17.82
2022-09-15T06:49:16.466Z,17.86
2022-09-15T06:51:43.531Z,17.89
2022-09-15T06:54:11.805Z,17.94
2022-09-15T06:56:39.006Z,17.98
2022-09-15T06:59:06.190Z,17.99
2022-09-15T07:01:44.518Z,18.03
2022-09-15T07:04:11.613Z,18.08
2022-09-15T07:06:39.821Z,18.11
2022-09-15T07:09:07.299Z,18.12
2022-09-15T07:11:34.671Z,18.17
2022-09-15T07:14:02.479Z,18.22
2022-09-15T07:16:30.238Z,18.28
2022-09-15T07:19:01.381Z,18.39
2022-09-15T07:21:29.305Z,18.47
2022-09-15T07:24:01.598Z,18.55
2022-09-15T07:26:33.784Z,18.66
2022-09-15T07:29:05.272Z,18.76
2022-09-15T07:31:36.141Z,18.87
2022-09-15T07:34:03.957Z,18.94
2022-09-15T07:36:31.926Z,19.04
2022-09-15T07:38:59.377Z,19.14
2022-09-15T07:41:30.768Z,19.27
2022-09-15T07:44:00.176Z,19.39
2022-09-15T07:46:32.399Z,19.44
2022-09-15T07:49:02.882Z,19.47
2022-09-15T07:51:30.449Z,19.48
2022-09-15T07:53:57.502Z,19.52
2022-09-15T07:56:24.842Z,19.58
2022-09-15T07:58:52.757Z,19.54
2022-09-15T08:01:22.424Z,19.58
2022-09-15T08:03:52.561Z,19.61
2022-09-15T08:06:25.089Z,19.68
2022-09-15T08:08:57.773Z,19.69
2022-09-15T08:11:28.845Z,19.58
2022-09-15T08:13:56.026Z,19.39
2022-09-15T08:16:24.907Z,19.28
2022-09-15T08:18:54.331Z,19.10
2022-09-15T08:21:23.886Z,18.96
2022-09-15T08:23:54.101Z,18.93
2022-09-15T08:26:22.503Z,18.97
2022-09-15T08:28:49.913Z,18.87
2022-09-15T08:31:18.106Z,18.82
2022-09-15T08:33:51.648Z,18.74
2022-09-15T08:36:18.878Z,18.80
2022-09-15T08:38:47.055Z,18.88
2022-09-15T08:41:41.617Z,18.74
2022-09-15T08:44:57.562Z,19.00
2022-09-15T08:47:40.783Z,19.04
2022-09-15T08:50:29.851Z,19.14
2022-09-15T08:53:19.998Z,19.18
2022-09-15T08:55:52.958Z,19.38
2022-09-15T08:58:34.020Z,19.63
2022-09-15T09:01:37.101Z,19.79
2022-09-15T09:04:42.523Z,20.19
2022-09-15T09:08:03.115Z,20.62
2022-09-15T09:10:51.764Z,20.85
2022-09-15T09:14:03.502Z,21.16
2022-09-15T09:16:51.913Z,21.33
2022-09-15T09:19:46.091Z,21.28
2022-09-15T09:22:21.886Z,21.29
2022-09-15T09:24:55.723Z,21.29
2022-09-15T09:27:29.850Z,21.40
2022-09-15T09:30:15.246Z,21.35
2022-09-15T09:33:13.336Z,21.47
2022-09-15T09:35:49.002Z,21.59
2022-09-15T09:38:41.790Z,21.69
2022-09-15T09:41:19.687Z,21.71
2022-09-15T09:43:49.520Z,21.58
2022-09-15T09:46:20.284Z,21.58
2022-09-15T09:48:58.695Z,21.66
2022-09-15T09:51:55.273Z,21.53
2022-09-15T09:54:27.216Z,21.53
2022-09-15T09:57:08.889Z,21.43
2022-09-15T09:59:50.926Z,21.38
2022-09-15T10:02:24.763Z,21.30
2022-09-15T10:05:12.310Z,21.29
2022-09-15T10:07:43.854Z,21.21
2022-09-15T10:10:25.997Z,21.19
2022-09-15T10:12:59.121Z,21.16
2022-09-15T10:15:31.889Z,21.15
2022-09-15T10:18:00.333Z,21.08
2022-09-15T10:20:47.970Z,20.95
2022-09-15T10:23:18.637Z,20.79
2022-09-15T10:26:01.368Z,20.62
2022-09-15T10:28:29.210Z,20.48
2022-09-15T10:31:04.334Z,20.45
2022-09-15T10:33:35.183Z,20.43
2022-09-15T10:36:13.885Z,20.47
2022-09-15T10:38:49.037Z,20.49
2022-09-15T10:41:29.856Z,20.53
2022-09-15T10:44:46.738Z,20.60
2022-09-15T10:47:35.963Z,20.70
2022-09-15T10:50:34.537Z,20.79
2022-09-15T10:53:25.217Z,20.86
2022-09-15T10:56:25.942Z,20.82
2022-09-15T10:59:17.909Z,20.84
2022-09-15T11:02:18.195Z,20.94
2022-09-15T11:05:32.149Z,20.93
2022-09-15T11:08:32.059Z,20.95
2022-09-15T11:11:39.749Z,21.06
2022-09-15T11:14:13.817Z,21.21
2022-09-15T11:17:37.371Z,21.27
2022-09-15T11:20:43.753Z,21.38
2022-09-15T11:23:28.560Z,21.47
2022-09-15T11:26:07.528Z,21.55
2022-09-15T11:28:45.525Z,21.55
2022-09-15T11:31:24.405Z,21.62
2022-09-15T11:34:40.076Z,21.73
2022-09-15T11:37:15.042Z,21.84
2022-09-15T11:39:55.350Z,21.95
2022-09-15T11:42:35.686Z,22.07
2022-09-15T11:45:03.843Z,22.21
2022-09-15T11:47:44.726Z,22.36
2022-09-15T11:50:29.610Z,22.51
2022-09-15T11:53:12.074Z,22.69
2022-09-15T11:55:51.282Z,22.85
2022-09-15T11:59:03.731Z,22.97
2022-09-15T12:01:52.247Z,23.07
2022-09-15T12:04:33.055Z,23.19
2022-09-15T12:07:23.182Z,23.29
2022-09-15T12:09:50.858Z,23.38
2022-09-15T12:12:22.543Z,23.45
2022-09-15T12:14:52.936Z,23.48
2022-09-15T12:17:45.428Z,23.47
2022-09-15T12:20:37.447Z,23.46
2022-09-15T12:23:19.393Z,23.45
2022-09-15T12:26:23.657Z,23.43
2022-09-15T12:29:38.096Z,23.37
2022-09-15T12:32:40.328Z,23.32
2022-09-15T12:35:16.818Z,23.31
2022-09-15T12:37:56.906Z,23.28
2022-09-15T12:40:30.124Z,23.25
2022-09-15T12:42:57.869Z,23.20
2022-09-15T12:45:38.601Z,23.16
2022-09-15T12:48:20.444Z,23.15
2022-09-15T12:51:23.264Z,23.15
2022-09-15T12:54:00.360Z,23.15
2022-09-15T12:56:31.658Z,23.08
2022-09-15T12:59:13.906Z,23.02
2022-09-15T13:01:51.469Z,22.94
2022-09-15T13:04:53.005Z,22.91
2022-09-15T13:07:20.934Z,22.87
2022-09-15T13:10:07.889Z,22.85
2022-09-15T13:12:44.039Z,22.82
2022-09-15T13:15:16.243Z,22.77
2022-09-15T13:17:47.150Z,22.71
2022-09-15T13:20:31.744Z,22.63
2022-09-15T13:23:03.133Z,22.55
2022-09-15T13:25:31.122Z,22.47
2022-09-15T13:28:02.395Z,22.37
2022-09-15T13:31:03.397Z,22.28
2022-09-15T13:41:09.392Z,21.87
2022-09-15T13:44:19.848Z,21.78
2022-09-15T13:47:21.586Z,21.79
2022-09-15T13:50:11.417Z,21.78
2022-09-15T13:53:06.127Z,21.75
2022-09-15T13:55:42.246Z,21.70
2022-09-15T14:01:07.224Z,21.60
2022-09-15T14:03:54.047Z,21.61
2022-09-15T14:06:30.202Z,21.61
2022-09-15T14:09:12.784Z,21.60
2022-09-15T14:11:42.503Z,21.60
2022-09-15T14:14:27.974Z,21.57
2022-09-15T14:16:56.982Z,21.55
2022-09-15T14:19:35.067Z,21.50
2022-09-15T14:22:17.805Z,21.46
2022-09-15T14:24:44.917Z,21.37
2022-09-15T14:27:27.444Z,21.29
2022-09-15T14:30:00.435Z,21.21
2022-09-15T14:32:31.449Z,21.20
2022-09-15T14:35:04.268Z,21.18
2022-09-15T14:37:32.591Z,21.15
2022-09-15T14:40:16.648Z,21.11
2022-09-15T14:42:44.598Z,21.07
2022-09-15T14:48:17.632Z,20.96
2022-09-15T14:51:01.694Z,20.93
2022-09-15T14:53:35.919Z,20.88
2022-09-15T14:56:22.264Z,20.85
2022-09-15T14:59:01.860Z,20.83
2022-09-15T15:01:42.814Z,20.81
2022-09-15T15:04:40.499Z,20.77
2022-09-15T15:07:22.858Z,20.74
2022-09-15T15:10:01.480Z,20.71
2022-09-15T15:12:45.594Z,20.68
2022-09-15T15:15:16.176Z,20.65
2022-09-15T15:17:49.250Z,20.62
2022-09-15T15:20:23.040Z,20.59
2022-09-15T15:23:23.760Z,20.55
2022-09-15T15:25:53.108Z,20.52
2022-09-15T15:28:35.879Z,20.49
2022-09-15T15:31:25.069Z,20.45
2022-09-15T15:33:59.668Z,20.42
2022-09-15T15:36:30.277Z,20.40
2022-09-15T15:39:03.932Z,20.38
2022-09-15T15:41:37.073Z,20.36
2022-09-15T15:44:27.790Z,20.33
2022-09-15T15:47:03.613Z,20.31
2022-09-15T15:49:32.685Z,20.30
2022-09-15T15:52:06.551Z,20.28
2022-09-15T15:54:34.650Z,20.25
2022-09-15T15:57:24.517Z,20.23
2022-09-15T15:59:57.281Z,20.20
2022-09-15T16:02:26.747Z,20.17
2022-09-15T16:04:54.991Z,20.09
2022-09-15T16:07:24.234Z,20.00
2022-09-15T16:09:51.810Z,19.93
2022-09-15T16:12:19.143Z,19.90
2022-09-15T16:14:46.241Z,19.89
2022-09-15T16:17:14.022Z,19.87
2022-09-15T16:19:41.422Z,19.83
2022-09-15T16:22:18.283Z,19.82
2022-09-15T16:24:46.354Z,19.78
2022-09-15T16:27:18.228Z,19.71
2022-09-15T16:29:45.655Z,19.68
2022-09-15T16:32:22.038Z,19.66
2022-09-15T16:34:52.641Z,19.65
2022-09-15T16:37:19.935Z,19.62
2022-09-15T16:39:46.995Z,19.60
2022-09-15T16:42:14.116Z,19.58
2022-09-15T16:44:41.561Z,19.53
2022-09-15T16:47:09.151Z,19.51
2022-09-15T16:49:39.262Z,19.46
2022-09-15T16:52:09.523Z,19.47
2022-09-15T16:54:36.678Z,19.44
2022-09-15T16:57:03.942Z,19.42
2022-09-15T16:59:31.609Z,19.38
2022-09-15T17:01:59.186Z,19.32
2022-09-15T17:04:26.632Z,19.31
2022-09-15T17:06:54.002Z,19.27
2022-09-15T17:09:21.506Z,19.24
2022-09-15T17:11:49.003Z,19.21
2022-09-15T17:14:17.783Z,19.16
2022-09-15T17:16:47.326Z,19.09
2022-09-15T17:19:14.614Z,18.95
2022-09-15T17:21:41.982Z,18.65
2022-09-15T17:24:09.431Z,18.41
2022-09-15T17:26:36.498Z,18.46
2022-09-15T17:29:04.206Z,18.54
2022-09-15T17:31:32.385Z,18.57
2022-09-15T17:34:00.909Z,18.58
2022-09-15T17:36:28.206Z,18.52
2022-09-15T17:38:55.693Z,18.42
2022-09-15T17:41:22.955Z,18.25
2022-09-15T17:43:53.339Z,18.17
2022-09-15T17:46:20.602Z,18.12
2022-09-15T17:48:47.598Z,18.07
2022-09-15T17:51:17.659Z,18.05
2022-09-15T17:53:46.787Z,18.08
2022-09-15T17:56:14.310Z,18.12
2022-09-15T17:58:43.158Z,18.15
2022-09-15T18:01:15.363Z,18.19
2022-09-15T18:03:44.734Z,18.21
2022-09-15T18:06:13.017Z,18.22
2022-09-15T18:08:40.363Z,18.20
2022-09-15T18:11:07.898Z,18.21
2022-09-15T18:13:35.372Z,18.22
2022-09-15T18:16:10.268Z,18.15
2022-09-15T18:18:39.898Z,18.06
2022-09-15T18:21:15.887Z,18.00
2022-09-15T18:23:45.013Z,18.04
2022-09-15T18:26:12.281Z,18.06
2022-09-15T18:28:39.366Z,18.05
2022-09-15T18:31:07.335Z,18.03
2022-09-15T18:33:34.471Z,18.01
2022-09-15T18:36:02.068Z,17.97
2022-09-15T18:38:29.698Z,17.94
2022-09-15T18:40:57.360Z,17.86
2022-09-15T18:43:27.765Z,17.73
2022-09-15T18:45:59.820Z,17.63
2022-09-15T18:48:29.135Z,17.57
2022-09-15T18:50:56.803Z,17.59
2022-09-15T18:53:24.579Z,17.61
2022-09-15T18:55:51.987Z,17.64
2022-09-15T18:58:19.528Z,17.64
2022-09-15T19:00:46.910Z,17.62
2022-09-15T19:03:14.444Z,17.60
2022-09-15T19:05:42.287Z,17.58
2022-09-15T19:08:11.294Z,17.57
2022-09-15T19:10:41.579Z,17.55
2022-09-15T19:13:11.246Z,17.52
2022-09-15T19:15:43.905Z,17.51
2022-09-15T19:18:12.122Z,17.50
2022-09-15T19:20:40.302Z,17.48
2022-09-15T19:23:08.167Z,17.48
2022-09-15T19:25:36.825Z,17.47
2022-09-15T19:28:04.010Z,17.44
2022-09-15T19:30:31.242Z,17.42
2022-09-15T19:32:58.936Z,17.41
2022-09-15T19:35:26.203Z,17.39
2022-09-15T19:37:53.788Z,17.38
2022-09-15T19:40:23.827Z,17.35
2022-09-15T19:42:51.123Z,17.34
2022-09-15T19:45:18.500Z,17.32
2022-09-15T19:47:45.906Z,17.32
2022-09-15T19:50:13.336Z,17.29
2022-09-15T19:52:40.765Z,17.29
2022-09-15T19:55:09.728Z,17.27
2022-09-15T19:57:42.088Z,17.24
2022-09-15T20:00:12.014Z,17.23
2022-09-15T20:02:40.154Z,17.20
2022-09-15T20:05:08.880Z,17.19
2022-09-15T20:07:36.815Z,17.17
2022-09-15T20:10:04.778Z,17.15
2022-09-15T20:12:32.204Z,17.15
2022-09-15T20:14:59.537Z,17.12
2022-09-15T20:17:27.252Z,17.09
2022-09-15T20:19:54.567Z,17.09
2022-09-15T20:22:21.928Z,17.06
2022-09-15T20:24:49.562Z,17.03
2022-09-15T20:27:16.995Z,16.99
2022-09-15T20:29:44.521Z,16.98
2022-09-15T20:32:11.827Z,16.98
2022-09-15T20:34:39.179Z,16.97
2022-09-15T20:37:07.090Z,16.91
2022-09-15T20:39:35.694Z,16.79
2022-09-15T20:42:07.289Z,16.75
2022-09-15T20:44:34.824Z,16.75
2022-09-15T20:47:04.125Z,16.73
2022-09-15T20:49:31.933Z,16.73
2022-09-15T20:51:59.295Z,16.72
2022-09-15T20:54:26.459Z,16.66
2022-09-15T20:56:53.771Z,16.62
2022-09-15T20:59:21.067Z,16.56
2022-09-15T21:01:48.390Z,16.55
2022-09-15T21:04:15.681Z,16.59
2022-09-15T21:06:42.993Z,16.55
2022-09-15T21:09:10.241Z,16.51
2022-09-15T21:11:37.767Z,16.53
2022-09-15T21:14:05.510Z,16.55
2022-09-15T21:16:34.875Z,16.55
2022-09-15T21:19:03.423Z,16.55
2022-09-15T21:21:32.874Z,16.54
2022-09-15T21:24:04.693Z,16.52
2022-09-15T21:26:57.989Z,16.49
2022-09-15T21:29:27.695Z,16.46
2022-09-15T21:31:56.482Z,16.46
2022-09-15T21:34:24.061Z,16.43
2022-09-15T21:36:53.669Z,16.39
2022-09-15T21:39:21.511Z,16.33
2022-09-15T21:41:48.859Z,16.30
2022-09-15T21:44:16.317Z,16.30
2022-09-15T21:46:46.851Z,16.28
2022-09-15T21:49:14.691Z,16.24
2022-09-15T21:51:41.994Z,16.18
2022-09-15T21:54:10.224Z,16.20
2022-09-15T21:56:37.645Z,16.16
2022-09-15T21:59:05.521Z,16.17
2022-09-15T22:01:33.594Z,16.14
2022-09-15T22:04:06.881Z,16.15
2022-09-15T22:06:40.195Z,16.15
2022-09-15T22:09:15.068Z,16.15
2022-09-15T22:11:43.145Z,16.09
2022-09-15T22:14:11.922Z,16.07
2022-09-15T22:16:42.273Z,16.05
2022-09-15T22:19:11.942Z,16.01
2022-09-15T22:21:41.807Z,16.00
2022-09-15T22:24:13.102Z,15.98
2022-09-15T22:26:42.431Z,15.94
2022-09-15T22:29:10.525Z,15.90
2022-09-15T22:31:38.507Z,15.88
2022-09-15T22:34:06.169Z,15.84
2022-09-15T22:36:33.752Z,15.82
2022-09-15T22:39:05.008Z,15.81
2022-09-15T22:41:36.924Z,15.77
2022-09-15T22:44:06.752Z,15.72
2022-09-15T22:46:34.824Z,15.70
2022-09-15T22:49:02.339Z,15.67
2022-09-15T22:51:33.456Z,15.65
2022-09-15T22:54:03.074Z,15.63
2022-09-15T22:56:30.538Z,15.62
2022-09-15T22:58:57.777Z,15.60
2022-09-15T23:01:30.556Z,15.52
2022-09-15T23:04:01.343Z,15.44
2022-09-15T23:06:32.989Z,15.40
2022-09-15T23:09:05.421Z,15.40
2022-09-15T23:11:33.474Z,15.36
2022-09-15T23:14:01.642Z,15.36
2022-09-15T23:16:30.769Z,15.36
2022-09-15T23:18:59.980Z,15.32
2022-09-15T23:21:28.298Z,15.30
2022-09-15T23:23:55.988Z,15.25
2022-09-15T23:26:25.279Z,15.24
2022-09-15T23:28:53.538Z,15.25
2022-09-15T23:31:21.850Z,15.23
2022-09-15T23:33:49.506Z,15.19
2022-09-15T23:36:21.838Z,15.15
2022-09-15T23:38:49.931Z,15.12
2022-09-15T23:41:18.817Z,15.09
2022-09-15T23:43:46.521Z,15.06
2022-09-15T23:46:14.770Z,15.04
2022-09-15T23:48:42.657Z,15.04
2022-09-15T23:51:10.062Z,15.01
2022-09-15T23:53:37.751Z,14.99
2022-09-15T23:56:05.494Z,14.99
2022-09-15T23:58:32.552Z,14.97
